MOR weather

Moriusaq Heliport
Greenland

Public forecast

Using degrees Celsius for public forecast. Weather courtesy of forecast.io.

METAR (pilot weather report)

Closest report is Thule Air Base, 20.7 nm (38.4 km) SE. Retrieved 2019/04/25 12:10 UTC (0 seconds ago):

BGTL 251210Z 00000KT 9999 BKN011 M10/M12 A2988 RMK AO2A SLP107 TSNO $

TAF (pilot weather forecast)

Closest forecast is Thule Air Base, 20.7 nm (38.4 km) SE. Retrieved 2019/04/25 09:03 UTC (3 hours ago):

TAF BGTL 250900Z 2509/2615 10009KT 9999 BKN020 OVC070 QNH2981INS WND 080V180 BECMG 2511/2512 10012KT 9000 -SHSN OVC015 610159 QNH2980INS TEMPO 2521/2606 OVC008 TXM10/2520Z TNM19/2604Z